sensor_id;sensor_type;location;lat;lon;timestamp;pressure;altitude;pressure_sealevel;temperature;humidity
69058;BME280;56128;37.534;-122.308;2023-02-04T00:00:47;102161.22;;;12.93;84.87
69058;BME280;56128;37.534;-122.308;2023-02-04T00:03:13;102162.19;;;12.92;84.90
69058;BME280;56128;37.534;-122.308;2023-02-04T00:05:39;102167.53;;;12.92;84.82
69058;BME280;56128;37.534;-122.308;2023-02-04T00:08:05;102170.22;;;12.92;84.97
69058;BME280;56128;37.534;-122.308;2023-02-04T00:10:31;102171.19;;;12.91;84.85
69058;BME280;56128;37.534;-122.308;2023-02-04T00:12:57;102166.69;;;12.91;84.97
69058;BME280;56128;37.534;-122.308;2023-02-04T00:15:23;102166.69;;;12.91;85.02
69058;BME280;56128;37.534;-122.308;2023-02-04T00:17:48;102171.09;;;12.92;84.81
69058;BME280;56128;37.534;-122.308;2023-02-04T00:20:14;102168.41;;;12.92;85.27
69058;BME280;56128;37.534;-122.308;2023-02-04T00:22:40;102169.28;;;12.93;85.41
69058;BME280;56128;37.534;-122.308;2023-02-04T00:25:06;102162.19;;;12.92;85.24
69058;BME280;56128;37.534;-122.308;2023-02-04T00:27:32;102161.31;;;12.91;85.59
69058;BME280;56128;37.534;-122.308;2023-02-04T00:29:58;102166.69;;;12.91;85.40
69058;BME280;56128;37.534;-122.308;2023-02-04T00:32:24;102163.13;;;12.91;85.48
69058;BME280;56128;37.534;-122.308;2023-02-04T00:34:50;102163.13;;;12.91;85.64
69058;BME280;56128;37.534;-122.308;2023-02-04T00:37:17;102160.44;;;12.91;85.66
69058;BME280;56128;37.534;-122.308;2023-02-04T00:39:43;102158.72;;;12.90;85.71
69058;BME280;56128;37.534;-122.308;2023-02-04T00:42:09;102164.09;;;12.90;85.58
69058;BME280;56128;37.534;-122.308;2023-02-04T00:44:35;102162.38;;;12.89;85.67
69058;BME280;56128;37.534;-122.308;2023-02-04T00:47:01;102160.53;;;12.89;85.79
69058;BME280;56128;37.534;-122.308;2023-02-04T00:49:27;102158.72;;;12.90;85.46
69058;BME280;56128;37.534;-122.308;2023-02-04T00:51:53;102153.34;;;12.90;85.80
69058;BME280;56128;37.534;-122.308;2023-02-04T00:54:18;102157.00;;;12.89;85.56
69058;BME280;56128;37.534;-122.308;2023-02-04T00:56:44;102157.88;;;12.89;85.68
69058;BME280;56128;37.534;-122.308;2023-02-04T00:59:10;102148.94;;;12.89;85.96
69058;BME280;56128;37.534;-122.308;2023-02-04T01:01:36;102152.50;;;12.89;85.99
69058;BME280;56128;37.534;-122.308;2023-02-04T01:04:02;102159.69;;;12.74;100.00
69058;BME280;56128;37.534;-122.308;2023-02-04T01:06:28;102162.47;;;12.44;100.00
69058;BME280;56128;37.534;-122.308;2023-02-04T01:08:54;102148.69;;;12.50;100.00
69058;BME280;56128;37.534;-122.308;2023-02-04T01:11:20;102152.78;;;12.56;100.00
69058;BME280;56128;37.534;-122.308;2023-02-04T01:13:46;102159.69;;;12.60;100.00
69058;BME280;56128;37.534;-122.308;2023-02-04T01:16:11;102158.56;;;12.64;100.00
69058;BME280;56128;37.534;-122.308;2023-02-04T01:18:37;102158.34;;;12.67;100.00
69058;BME280;56128;37.534;-122.308;2023-02-04T01:21:03;102167.19;;;12.69;100.00
69058;BME280;56128;37.534;-122.308;2023-02-04T01:23:29;102159.91;;;12.71;100.00
69058;BME280;56128;37.534;-122.308;2023-02-04T01:25:55;102169.59;;;12.74;100.00
69058;BME280;56128;37.534;-122.308;2023-02-04T01:28:21;102171.28;;;12.75;99.93
69058;BME280;56128;37.534;-122.308;2023-02-04T01:30:47;102168.53;;;12.76;99.31
69058;BME280;56128;37.534;-122.308;2023-02-04T01:33:13;102164.84;;;12.77;98.53
69058;BME280;56128;37.534;-122.308;2023-02-04T01:35:39;102168.31;;;12.79;98.19
69058;BME280;56128;37.534;-122.308;2023-02-04T01:38:04;102163.84;;;12.80;97.99
69058;BME280;56128;37.534;-122.308;2023-02-04T01:40:30;102167.38;;;12.80;97.45
69058;BME280;56128;37.534;-122.308;2023-02-04T01:42:56;102164.56;;;12.82;97.11
69058;BME280;56128;37.534;-122.308;2023-02-04T01:45:22;102161.03;;;12.81;96.92
69058;BME280;56128;37.534;-122.308;2023-02-04T01:47:48;102160.94;;;12.83;96.66
69058;BME280;56128;37.534;-122.308;2023-02-04T01:50:14;102150.19;;;12.83;96.36
69058;BME280;56128;37.534;-122.308;2023-02-04T01:52:41;102154.72;;;12.82;95.80
69058;BME280;56128;37.534;-122.308;2023-02-04T01:55:15;102149.34;;;12.82;95.72
69058;BME280;56128;37.534;-122.308;2023-02-04T01:57:41;102160.84;;;12.85;95.48
69058;BME280;56128;37.534;-122.308;2023-02-04T02:00:15;102156.41;;;12.83;95.16
69058;BME280;56128;37.534;-122.308;2023-02-04T02:02:45;102155.47;;;12.85;95.04
69058;BME280;56128;37.534;-122.308;2023-02-04T02:05:13;102151.03;;;12.83;94.79
69058;BME280;56128;37.534;-122.308;2023-02-04T02:07:40;102151.81;;;12.86;94.67
69058;BME280;56128;37.534;-122.308;2023-02-04T02:10:07;102156.34;;;12.85;94.40
69058;BME280;56128;37.534;-122.308;2023-02-04T02:12:35;102153.53;;;12.87;94.23
69058;BME280;56128;37.534;-122.308;2023-02-04T02:15:01;102151.81;;;12.86;94.34
69058;BME280;56128;37.534;-122.308;2023-02-04T02:17:27;102154.50;;;12.86;94.18
69058;BME280;56128;37.534;-122.308;2023-02-04T02:19:53;102149.13;;;12.86;94.04
69058;BME280;56128;37.534;-122.308;2023-02-04T02:22:29;102161.59;;;12.87;93.98
69058;BME280;56128;37.534;-122.308;2023-02-04T02:24:57;102153.53;;;12.87;94.01
69058;BME280;56128;37.534;-122.308;2023-02-04T02:27:22;102158.03;;;12.86;93.76
69058;BME280;56128;37.534;-122.308;2023-02-04T02:29:48;102158.91;;;12.87;93.59
69058;BME280;56128;37.534;-122.308;2023-02-04T02:32:14;102162.56;;;12.86;93.78
69058;BME280;56128;37.534;-122.308;2023-02-04T02:34:40;102152.66;;;12.86;93.61
69058;BME280;56128;37.534;-122.308;2023-02-04T02:37:07;102158.03;;;12.86;93.46
69058;BME280;56128;37.534;-122.308;2023-02-04T02:39:34;102154.50;;;12.86;93.26
69058;BME280;56128;37.534;-122.308;2023-02-04T02:42:00;102141.06;;;12.86;93.22
69058;BME280;56128;37.534;-122.308;2023-02-04T02:44:26;102141.91;;;12.86;93.34
69058;BME280;56128;37.534;-122.308;2023-02-04T02:46:52;102142.81;;;12.87;93.05
69058;BME280;56128;37.534;-122.308;2023-02-04T02:49:19;102138.28;;;12.87;93.34
69058;BME280;56128;37.534;-122.308;2023-02-04T02:51:45;102134.75;;;12.87;93.12
69058;BME280;56128;37.534;-122.308;2023-02-04T02:54:22;102140.97;;;12.87;93.29
69058;BME280;56128;37.534;-122.308;2023-02-04T02:56:48;102137.44;;;12.87;92.80
69058;BME280;56128;37.534;-122.308;2023-02-04T02:59:14;102132.91;;;12.87;92.94
69058;BME280;56128;37.534;-122.308;2023-02-04T03:01:41;102123.03;;;12.88;93.07
69058;BME280;56128;37.534;-122.308;2023-02-04T03:04:07;102116.78;;;12.87;93.13
69058;BME280;56128;37.534;-122.308;2023-02-04T03:06:33;102137.31;;;12.88;92.66
69058;BME280;56128;37.534;-122.308;2023-02-04T03:09:00;102144.53;;;12.88;92.90
69058;BME280;56128;37.534;-122.308;2023-02-04T03:11:25;102147.22;;;12.88;92.77
69058;BME280;56128;37.534;-122.308;2023-02-04T03:13:54;102147.22;;;12.88;92.61
69058;BME280;56128;37.534;-122.308;2023-02-04T03:16:21;102140.97;;;12.87;92.64
69058;BME280;56128;37.534;-122.308;2023-02-04T03:18:47;102140.13;;;12.87;92.78
69058;BME280;56128;37.534;-122.308;2023-02-04T03:21:13;102133.78;;;12.88;92.81
69058;BME280;56128;37.534;-122.308;2023-02-04T03:23:38;102131.09;;;12.88;92.68
69058;BME280;56128;37.534;-122.308;2023-02-04T03:26:05;102125.72;;;12.88;92.53
69058;BME280;56128;37.534;-122.308;2023-02-04T03:28:31;102131.94;;;12.88;92.60
69058;BME280;56128;37.534;-122.308;2023-02-04T03:30:57;102131.09;;;12.88;92.66
69058;BME280;56128;37.534;-122.308;2023-02-04T03:33:24;102118.06;;;12.81;92.76
69058;BME280;56128;37.534;-122.308;2023-02-04T03:35:50;102120.34;;;12.88;92.45
69058;BME280;56128;37.534;-122.308;2023-02-04T03:38:17;102117.66;;;12.88;92.51
69058;BME280;56128;37.534;-122.308;2023-02-04T03:40:43;102114.09;;;12.87;92.50
69058;BME280;56128;37.534;-122.308;2023-02-04T03:43:09;102115.84;;;12.88;92.43
69058;BME280;56128;37.534;-122.308;2023-02-04T03:45:34;102113.16;;;12.88;92.45
69058;BME280;56128;37.534;-122.308;2023-02-04T03:48:00;102107.78;;;12.88;92.25
69058;BME280;56128;37.534;-122.308;2023-02-04T03:50:26;102108.66;;;12.89;92.35
69058;BME280;56128;37.534;-122.308;2023-02-04T03:52:52;102107.78;;;12.88;92.33
69058;BME280;56128;37.534;-122.308;2023-02-04T03:55:18;102108.66;;;12.89;92.46
69058;BME280;56128;37.534;-122.308;2023-02-04T03:57:44;102111.34;;;12.89;92.50
69058;BME280;56128;37.534;-122.308;2023-02-04T04:00:10;102119.41;;;12.89;92.57
69058;BME280;56128;37.534;-122.308;2023-02-04T04:02:36;102119.41;;;12.89;92.69
69058;BME280;56128;37.534;-122.308;2023-02-04T04:05:02;102116.72;;;12.89;92.23
69058;BME280;56128;37.534;-122.308;2023-02-04T04:07:28;102119.41;;;12.89;92.33
69058;BME280;56128;37.534;-122.308;2023-02-04T04:09:54;102121.22;;;12.88;92.37
69058;BME280;56128;37.534;-122.308;2023-02-04T04:12:20;102130.16;;;12.89;92.43
69058;BME280;56128;37.534;-122.308;2023-02-04T04:14:45;102131.84;;;12.90;92.38
69058;BME280;56128;37.534;-122.308;2023-02-04T04:17:11;102119.41;;;12.89;92.51
69058;BME280;56128;37.534;-122.308;2023-02-04T04:19:37;102119.41;;;12.89;92.66
69058;BME280;56128;37.534;-122.308;2023-02-04T04:22:03;102131.84;;;12.90;92.40
69058;BME280;56128;37.534;-122.308;2023-02-04T04:24:29;102121.97;;;12.90;92.63
69058;BME280;56128;37.534;-122.308;2023-02-04T04:26:54;102113.03;;;12.90;92.57
69058;BME280;56128;37.534;-122.308;2023-02-04T04:29:20;102121.97;;;12.90;92.59
69058;BME280;56128;37.534;-122.308;2023-02-04T04:31:46;102138.09;;;12.90;92.41
69058;BME280;56128;37.534;-122.308;2023-02-04T04:34:12;102133.56;;;12.91;92.77
69058;BME280;56128;37.534;-122.308;2023-02-04T04:36:38;102139.84;;;12.91;92.69
69058;BME280;56128;37.534;-122.308;2023-02-04T04:39:04;102133.56;;;12.91;92.58
69058;BME280;56128;37.534;-122.308;2023-02-04T04:41:30;102121.97;;;12.90;92.29
69058;BME280;56128;37.534;-122.308;2023-02-04T04:43:55;102120.16;;;12.91;92.71
69058;BME280;56128;37.534;-122.308;2023-02-04T04:46:21;102116.59;;;12.90;92.53
69058;BME280;56128;37.534;-122.308;2023-02-04T04:48:47;102122.84;;;12.91;92.63
69058;BME280;56128;37.534;-122.308;2023-02-04T04:51:13;102120.03;;;12.92;92.48
69058;BME280;56128;37.534;-122.308;2023-02-04T04:53:39;102117.47;;;12.91;92.47
69058;BME280;56128;37.534;-122.308;2023-02-04T04:56:05;102128.09;;;12.92;92.52
69058;BME280;56128;37.534;-122.308;2023-02-04T04:58:31;102123.72;;;12.91;92.73
69058;BME280;56128;37.534;-122.308;2023-02-04T05:00:56;102122.84;;;12.91;92.77
69058;BME280;56128;37.534;-122.308;2023-02-04T05:03:22;102122.84;;;12.91;92.55
69058;BME280;56128;37.534;-122.308;2023-02-04T05:05:49;102119.28;;;12.90;92.68
69058;BME280;56128;37.534;-122.308;2023-02-04T05:08:15;102121.97;;;12.90;92.67
69058;BME280;56128;37.534;-122.308;2023-02-04T05:10:41;102133.56;;;12.91;92.72
69058;BME280;56128;37.534;-122.308;2023-02-04T05:13:07;102130.88;;;12.91;92.63
69058;BME280;56128;37.534;-122.308;2023-02-04T05:15:33;102135.31;;;12.92;92.81
69058;BME280;56128;37.534;-122.308;2023-02-04T05:18:00;102133.56;;;12.91;92.77
69058;BME280;56128;37.534;-122.308;2023-02-04T05:20:26;102131.84;;;12.90;92.43
69058;BME280;56128;37.534;-122.308;2023-02-04T05:22:52;102121.97;;;12.90;92.80
69058;BME280;56128;37.534;-122.308;2023-02-04T05:25:20;102134.53;;;12.90;92.68
69058;BME280;56128;37.534;-122.308;2023-02-04T05:27:46;102126.47;;;12.90;92.86
69058;BME280;56128;37.534;-122.308;2023-02-04T05:30:13;102137.22;;;12.90;92.77
69058;BME280;56128;37.534;-122.308;2023-02-04T05:32:39;102129.09;;;12.91;92.81
69058;BME280;56128;37.534;-122.308;2023-02-04T05:35:05;102133.56;;;12.91;93.18
69058;BME280;56128;37.534;-122.308;2023-02-04T05:37:31;102140.69;;;12.92;93.00
69058;BME280;56128;37.534;-122.308;2023-02-04T05:39:57;102146.06;;;12.92;93.02
69058;BME280;56128;37.534;-122.308;2023-02-04T05:42:23;102137.16;;;12.91;92.90
69058;BME280;56128;37.534;-122.308;2023-02-04T05:44:49;102136.25;;;12.91;92.86
69058;BME280;56128;37.534;-122.308;2023-02-04T05:47:15;102132.72;;;12.90;93.05
69058;BME280;56128;37.534;-122.308;2023-02-04T05:49:41;102139.91;;;12.90;93.01
69058;BME280;56128;37.534;-122.308;2023-02-04T05:52:06;102139.91;;;12.90;92.77
69058;BME280;56128;37.534;-122.308;2023-02-04T05:54:32;102138.09;;;12.90;93.08
69058;BME280;56128;37.534;-122.308;2023-02-04T05:56:58;102133.69;;;12.89;93.09
69058;BME280;56128;37.534;-122.308;2023-02-04T05:59:24;102138.94;;;12.91;93.05
69058;BME280;56128;37.534;-122.308;2023-02-04T06:01:50;102142.59;;;12.90;92.62
69058;BME280;56128;37.534;-122.308;2023-02-04T06:04:16;102137.22;;;12.90;93.21
69058;BME280;56128;37.534;-122.308;2023-02-04T06:06:42;102135.41;;;12.90;93.13
69058;BME280;56128;37.534;-122.308;2023-02-04T06:09:09;102131.00;;;12.89;93.07
69058;BME280;56128;37.534;-122.308;2023-02-04T06:11:34;102123.78;;;12.90;93.30
69058;BME280;56128;37.534;-122.308;2023-02-04T06:14:00;102121.09;;;12.90;93.22
69058;BME280;56128;37.534;-122.308;2023-02-04T06:16:26;102122.09;;;12.89;93.33
69058;BME280;56128;37.534;-122.308;2023-02-04T06:18:52;102128.41;;;12.88;93.23
69058;BME280;56128;37.534;-122.308;2023-02-04T06:21:18;102120.25;;;12.89;93.17
69058;BME280;56128;37.534;-122.308;2023-02-04T06:23:44;102116.72;;;12.89;93.25
69058;BME280;56128;37.534;-122.308;2023-02-04T06:26:10;102102.41;;;12.88;93.18
69058;BME280;56128;37.534;-122.308;2023-02-04T06:28:36;102107.78;;;12.88;93.27
69058;BME280;56128;37.534;-122.308;2023-02-04T06:31:02;102096.19;;;12.88;93.41
69058;BME280;56128;37.534;-122.308;2023-02-04T06:33:28;102100.66;;;12.87;93.41
69058;BME280;56128;37.534;-122.308;2023-02-04T06:35:54;102104.25;;;12.88;93.38
69058;BME280;56128;37.534;-122.308;2023-02-04T06:38:19;102106.94;;;12.88;93.38
69058;BME280;56128;37.534;-122.308;2023-02-04T06:40:45;102104.25;;;12.88;93.28
69058;BME280;56128;37.534;-122.308;2023-02-04T06:43:18;102107.88;;;12.87;93.39
69058;BME280;56128;37.534;-122.308;2023-02-04T06:45:43;102105.19;;;12.87;93.37
69058;BME280;56128;37.534;-122.308;2023-02-04T06:48:09;102108.84;;;12.86;93.43
69058;BME280;56128;37.534;-122.308;2023-02-04T06:50:35;102111.41;;;12.87;93.41
69058;BME280;56128;37.534;-122.308;2023-02-04T06:53:01;102104.31;;;12.86;93.38
69058;BME280;56128;37.534;-122.308;2023-02-04T06:55:27;102096.25;;;12.86;93.44
69058;BME280;56128;37.534;-122.308;2023-02-04T06:57:53;102097.13;;;12.87;93.66
69058;BME280;56128;37.534;-122.308;2023-02-04T07:00:18;102097.13;;;12.87;93.81
69058;BME280;56128;37.534;-122.308;2023-02-04T07:02:44;102105.19;;;12.87;93.55
69058;BME280;56128;37.534;-122.308;2023-02-04T07:05:10;102103.47;;;12.86;93.66
69058;BME280;56128;37.534;-122.308;2023-02-04T07:07:36;102106.16;;;12.86;93.62
69058;BME280;56128;37.534;-122.308;2023-02-04T07:10:02;102106.16;;;12.86;93.70
69058;BME280;56128;37.534;-122.308;2023-02-04T07:12:28;102105.31;;;12.85;93.85
69058;BME280;56128;37.534;-122.308;2023-02-04T07:14:54;102108.00;;;12.85;93.76
69058;BME280;56128;37.534;-122.308;2023-02-04T07:17:20;102103.69;;;12.82;93.84
69058;BME280;56128;37.534;-122.308;2023-02-04T07:19:45;102099.16;;;12.83;93.85
69058;BME280;56128;37.534;-122.308;2023-02-04T07:22:11;102098.31;;;12.82;93.99
69058;BME280;56128;37.534;-122.308;2023-02-04T07:24:37;102100.00;;;12.83;93.97
69058;BME280;56128;37.534;-122.308;2023-02-04T07:27:03;102098.31;;;12.82;94.12
69058;BME280;56128;37.534;-122.308;2023-02-04T07:29:29;102108.06;;;12.83;94.26
69058;BME280;56128;37.534;-122.308;2023-02-04T07:31:54;102102.78;;;12.82;94.12
69058;BME280;56128;37.534;-122.308;2023-02-04T07:34:20;102097.41;;;12.82;94.23
69058;BME280;56128;37.534;-122.308;2023-02-04T07:36:46;102101.94;;;12.81;94.01
69058;BME280;56128;37.534;-122.308;2023-02-04T07:39:12;102106.44;;;12.81;94.23
69058;BME280;56128;37.534;-122.308;2023-02-04T07:41:38;102101.94;;;12.81;94.28
69058;BME280;56128;37.534;-122.308;2023-02-04T07:44:04;102102.91;;;12.80;94.26
69058;BME280;56128;37.534;-122.308;2023-02-04T07:46:30;102106.53;;;12.79;94.19
69058;BME280;56128;37.534;-122.308;2023-02-04T07:48:55;102105.59;;;12.80;94.33
69058;BME280;56128;37.534;-122.308;2023-02-04T07:51:21;102105.59;;;12.80;93.97
69058;BME280;56128;37.534;-122.308;2023-02-04T07:53:47;102102.06;;;12.80;94.11
69058;BME280;56128;37.534;-122.308;2023-02-04T07:56:13;102099.38;;;12.80;94.09
69058;BME280;56128;37.534;-122.308;2023-02-04T07:58:39;102101.94;;;12.81;94.13
69058;BME280;56128;37.534;-122.308;2023-02-04T08:01:05;102100.22;;;12.80;94.22
69058;BME280;56128;37.534;-122.308;2023-02-04T08:03:30;102095.81;;;12.79;94.33
69058;BME280;56128;37.534;-122.308;2023-02-04T08:05:56;102096.69;;;12.80;94.41
69058;BME280;56128;37.534;-122.308;2023-02-04T08:08:22;102092.25;;;12.79;94.31
69058;BME280;56128;37.534;-122.308;2023-02-04T08:10:48;102091.38;;;12.78;94.29
69058;BME280;56128;37.534;-122.308;2023-02-04T08:13:14;102082.38;;;12.79;94.35
69058;BME280;56128;37.534;-122.308;2023-02-04T08:15:39;102077.94;;;12.78;94.43
69058;BME280;56128;37.534;-122.308;2023-02-04T08:18:05;102075.28;;;12.78;94.39
69058;BME280;56128;37.534;-122.308;2023-02-04T08:20:31;102062.78;;;12.77;94.32
69058;BME280;56128;37.534;-122.308;2023-02-04T08:22:57;102065.47;;;12.77;94.36
69058;BME280;56128;37.534;-122.308;2023-02-04T08:25:23;102070.84;;;12.77;94.36
69058;BME280;56128;37.534;-122.308;2023-02-04T08:27:49;102069.91;;;12.78;94.38
69058;BME280;56128;37.534;-122.308;2023-02-04T08:30:15;102066.25;;;12.79;94.41
69058;BME280;56128;37.534;-122.308;2023-02-04T08:32:41;102063.56;;;12.79;94.55
69058;BME280;56128;37.534;-122.308;2023-02-04T08:35:07;102054.66;;;12.79;94.65
69058;BME280;56128;37.534;-122.308;2023-02-04T08:37:33;102053.78;;;12.78;94.51
69058;BME280;56128;37.534;-122.308;2023-02-04T08:39:59;102057.34;;;12.79;94.45
69058;BME280;56128;37.534;-122.308;2023-02-04T08:42:25;102057.41;;;12.77;94.59
69058;BME280;56128;37.534;-122.308;2023-02-04T08:44:50;102058.31;;;12.78;94.69
69058;BME280;56128;37.534;-122.308;2023-02-04T08:47:16;102057.41;;;12.77;94.38
69058;BME280;56128;37.534;-122.308;2023-02-04T08:49:42;102062.78;;;12.77;94.51
69058;BME280;56128;37.534;-122.308;2023-02-04T08:52:08;102064.63;;;12.77;94.44
69058;BME280;56128;37.534;-122.308;2023-02-04T08:54:34;102062.78;;;12.77;94.53
69058;BME280;56128;37.534;-122.308;2023-02-04T08:57:00;102068.16;;;12.77;94.82
69058;BME280;56128;37.534;-122.308;2023-02-04T08:59:26;102074.41;;;12.78;94.73
69058;BME280;56128;37.534;-122.308;2023-02-04T09:01:52;102061.84;;;12.78;94.55
69058;BME280;56128;37.534;-122.308;2023-02-04T09:04:19;102063.69;;;12.78;94.66
69058;BME280;56128;37.534;-122.308;2023-02-04T09:06:45;102057.41;;;12.77;94.94
69058;BME280;56128;37.534;-122.308;2023-02-04T09:09:12;102053.03;;;12.76;94.54
69058;BME280;56128;37.534;-122.308;2023-02-04T09:11:38;102054.75;;;12.77;94.67
69058;BME280;56128;37.534;-122.308;2023-02-04T09:14:04;102056.56;;;12.77;94.59
69058;BME280;56128;37.534;-122.308;2023-02-04T09:16:29;102048.50;;;12.77;94.79
69058;BME280;56128;37.534;-122.308;2023-02-04T09:18:55;102054.84;;;12.76;94.74
69058;BME280;56128;37.534;-122.308;2023-02-04T09:21:23;102057.41;;;12.77;94.62
69058;BME280;56128;37.534;-122.308;2023-02-04T09:23:49;102046.78;;;12.76;94.69
69058;BME280;56128;37.534;-122.308;2023-02-04T09:26:14;102044.09;;;12.76;94.70
69058;BME280;56128;37.534;-122.308;2023-02-04T09:28:40;102034.25;;;12.76;94.69
69058;BME280;56128;37.534;-122.308;2023-02-04T09:31:06;102039.59;;;12.76;94.86
69058;BME280;56128;37.534;-122.308;2023-02-04T09:33:32;102057.41;;;12.77;94.88
69058;BME280;56128;37.534;-122.308;2023-02-04T09:35:58;102048.63;;;12.75;94.47
69058;BME280;56128;37.534;-122.308;2023-02-04T09:38:24;102045.84;;;12.77;94.87
69058;BME280;56128;37.534;-122.308;2023-02-04T09:40:52;102037.78;;;12.77;95.09
69058;BME280;56128;37.534;-122.308;2023-02-04T09:43:23;102040.47;;;12.77;94.86
69058;BME280;56128;37.534;-122.308;2023-02-04T09:45:50;102044.97;;;12.76;95.19
69058;BME280;56128;37.534;-122.308;2023-02-04T09:48:16;102037.88;;;12.75;95.08
69058;BME280;56128;37.534;-122.308;2023-02-04T09:50:42;102037.88;;;12.75;95.05
69058;BME280;56128;37.534;-122.308;2023-02-04T09:53:09;102037.88;;;12.75;95.23
69058;BME280;56128;37.534;-122.308;2023-02-04T09:55:38;102035.19;;;12.75;95.02
69058;BME280;56128;37.534;-122.308;2023-02-04T09:58:12;102037.88;;;12.75;95.15
69058;BME280;56128;37.534;-122.308;2023-02-04T10:00:38;102035.19;;;12.75;95.35
69058;BME280;56128;37.534;-122.308;2023-02-04T10:03:09;102035.19;;;12.75;95.33
69058;BME280;56128;37.534;-122.308;2023-02-04T10:05:36;102025.41;;;12.74;94.98
69058;BME280;56128;37.534;-122.308;2023-02-04T10:08:03;102029.81;;;12.75;95.23
69058;BME280;56128;37.534;-122.308;2023-02-04T10:10:30;102021.75;;;12.75;95.33
69058;BME280;56128;37.534;-122.308;2023-02-04T10:12:59;102014.56;;;12.76;95.30
69058;BME280;56128;37.534;-122.308;2023-02-04T10:15:26;102015.50;;;12.75;95.37
69058;BME280;56128;37.534;-122.308;2023-02-04T10:17:53;102015.50;;;12.75;95.47
69058;BME280;56128;37.534;-122.308;2023-02-04T10:20:21;102019.19;;;12.74;95.25
69058;BME280;56128;37.534;-122.308;2023-02-04T10:22:47;102021.88;;;12.74;95.49
69058;BME280;56128;37.534;-122.308;2023-02-04T10:25:15;102009.28;;;12.74;95.50
69058;BME280;56128;37.534;-122.308;2023-02-04T10:27:54;102011.97;;;12.74;95.44
69058;BME280;56128;37.534;-122.308;2023-02-04T10:30:22;102015.50;;;12.75;95.57
69058;BME280;56128;37.534;-122.308;2023-02-04T10:32:48;102012.94;;;12.73;95.51
69058;BME280;56128;37.534;-122.308;2023-02-04T10:35:16;102009.28;;;12.74;95.75
69058;BME280;56128;37.534;-122.308;2023-02-04T10:37:42;102003.91;;;12.74;95.67
69058;BME280;56128;37.534;-122.308;2023-02-04T10:40:58;102003.91;;;12.74;95.51
69058;BME280;56128;37.534;-122.308;2023-02-04T10:42:54;102009.28;;;12.74;95.60
69058;BME280;56128;37.534;-122.308;2023-02-04T10:45:26;102003.91;;;12.74;95.74
69058;BME280;56128;37.534;-122.308;2023-02-04T10:47:53;102020.03;;;12.74;95.78
69058;BME280;56128;37.534;-122.308;2023-02-04T10:50:23;102020.03;;;12.74;95.53
69058;BME280;56128;37.534;-122.308;2023-02-04T10:52:53;102016.41;;;12.75;95.70
69058;BME280;56128;37.534;-122.308;2023-02-04T10:55:39;102018.31;;;12.73;96.03
69058;BME280;56128;37.534;-122.308;2023-02-04T10:58:07;102011.97;;;12.74;95.70
69058;BME280;56128;37.534;-122.308;2023-02-04T11:00:34;102013.81;;;12.74;95.91
69058;BME280;56128;37.534;-122.308;2023-02-04T11:03:05;102009.41;;;12.73;95.60
69058;BME280;56128;37.534;-122.308;2023-02-04T11:05:32;102009.41;;;12.73;95.79
69058;BME280;56128;37.534;-122.308;2023-02-04T11:07:59;102007.56;;;12.73;95.82
69058;BME280;56128;37.534;-122.308;2023-02-04T11:10:30;102011.13;;;12.74;95.86
69058;BME280;56128;37.534;-122.308;2023-02-04T11:18:03;102006.59;;;12.74;95.82
69058;BME280;56128;37.534;-122.308;2023-02-04T11:20:30;101996.81;;;12.73;96.12
69058;BME280;56128;37.534;-122.308;2023-02-04T11:22:56;101990.59;;;12.73;96.03
69058;BME280;56128;37.534;-122.308;2023-02-04T11:25:31;101987.91;;;12.73;96.05
69058;BME280;56128;37.534;-122.308;2023-02-04T11:27:58;101983.50;;;12.72;96.16
69058;BME280;56128;37.534;-122.308;2023-02-04T11:30:29;101987.03;;;12.72;96.15
69058;BME280;56128;37.534;-122.308;2023-02-04T11:33:05;101984.34;;;12.72;96.08
69058;BME280;56128;37.534;-122.308;2023-02-04T11:35:31;101983.50;;;12.72;96.04
69058;BME280;56128;37.534;-122.308;2023-02-04T11:37:57;101982.66;;;12.71;96.05
69058;BME280;56128;37.534;-122.308;2023-02-04T11:42:59;101977.28;;;12.71;96.00
69058;BME280;56128;37.534;-122.308;2023-02-04T11:45:27;101982.66;;;12.71;96.14
69058;BME280;56128;37.534;-122.308;2023-02-04T11:47:53;101970.38;;;12.67;96.03
69058;BME280;56128;37.534;-122.308;2023-02-04T11:50:22;101981.66;;;12.72;96.33
69058;BME280;56128;37.534;-122.308;2023-02-04T11:52:49;101972.75;;;12.72;96.28
69058;BME280;56128;37.534;-122.308;2023-02-04T11:55:15;101972.75;;;12.72;96.24
69058;BME280;56128;37.534;-122.308;2023-02-04T11:57:42;101975.44;;;12.72;96.35
69058;BME280;56128;37.534;-122.308;2023-02-04T12:00:12;101971.91;;;12.71;96.42
69058;BME280;56128;37.534;-122.308;2023-02-04T12:02:45;101971.91;;;12.71;96.20
69058;BME280;56128;37.534;-122.308;2023-02-04T12:05:13;101973.72;;;12.71;96.35
69058;BME280;56128;37.534;-122.308;2023-02-04T12:07:40;101969.31;;;12.70;96.23
69058;BME280;56128;37.534;-122.308;2023-02-04T12:10:10;101960.28;;;12.71;96.31
69058;BME280;56128;37.534;-122.308;2023-02-04T12:12:40;101963.94;;;12.70;96.32
69058;BME280;56128;37.534;-122.308;2023-02-04T12:15:13;101959.44;;;12.70;96.30
69058;BME280;56128;37.534;-122.308;2023-02-04T12:17:39;101966.63;;;12.70;96.65
69058;BME280;56128;37.534;-122.308;2023-02-04T12:20:08;101968.44;;;12.69;96.29
69058;BME280;56128;37.534;-122.308;2023-02-04T12:22:34;101962.13;;;12.70;96.40
69058;BME280;56128;37.534;-122.308;2023-02-04T12:25:00;101969.31;;;12.70;96.41